createdAt,value
2023-01-13T00:01:13.971Z,36.50
2023-01-13T00:03:42.259Z,29.12
2023-01-13T00:06:13.482Z,27.70
2023-01-13T00:08:41.022Z,25.35
2023-01-13T00:11:09.747Z,21.42
2023-01-13T00:13:38.427Z,21.42
2023-01-13T00:16:07.973Z,21.55
2023-01-13T00:18:36.971Z,23.95
2023-01-13T00:21:06.077Z,24.05
2023-01-13T00:23:34.460Z,51.85
2023-01-13T00:26:06.987Z,19.92
2023-01-13T00:28:34.318Z,19.80
2023-01-13T00:31:12.534Z,22.17
2023-01-13T00:33:39.958Z,21.87
2023-01-13T00:36:08.412Z,28.83
2023-01-13T00:38:36.213Z,24.87
2023-01-13T00:41:53.483Z,22.00
2023-01-13T00:44:21.041Z,24.65
2023-01-13T00:46:48.308Z,22.45
2023-01-13T00:49:15.415Z,21.20
2023-01-13T00:51:42.777Z,23.27
2023-01-13T00:54:09.875Z,27.60
2023-01-13T00:56:41.248Z,30.92
2023-01-13T00:59:13.430Z,31.75
2023-01-13T01:01:41.596Z,32.50
2023-01-13T01:04:09.109Z,30.20
2023-01-13T01:06:36.206Z,29.27
2023-01-13T01:09:04.243Z,27.23
2023-01-13T01:11:32.525Z,28.08
2023-01-13T01:14:01.719Z,25.17
2023-01-13T01:16:30.310Z,32.35
2023-01-13T01:18:58.184Z,27.15
2023-01-13T01:21:26.483Z,31.42
2023-01-13T01:23:54.058Z,32.70
2023-01-13T01:26:24.403Z,30.33
2023-01-13T01:28:52.146Z,35.22
2023-01-13T01:31:25.366Z,29.87
2023-01-13T01:33:54.011Z,25.00
2023-01-13T01:36:22.199Z,25.02
2023-01-13T01:38:49.909Z,23.83
2023-01-13T01:41:25.059Z,26.27
2023-01-13T01:44:02.248Z,29.52
2023-01-13T01:46:38.109Z,31.27
2023-01-13T01:49:17.510Z,34.53
2023-01-13T01:52:13.641Z,31.62
2023-01-13T01:54:52.582Z,28.73
2023-01-13T01:57:23.967Z,33.28
2023-01-13T01:59:51.209Z,31.27
2023-01-13T02:02:18.768Z,32.67
2023-01-13T02:04:51.993Z,28.65
2023-01-13T02:07:21.436Z,28.40
2023-01-13T02:09:49.295Z,30.48
2023-01-13T02:12:32.352Z,27.85
2023-01-13T02:15:04.346Z,27.80
2023-01-13T02:17:52.811Z,26.45
2023-01-13T02:20:48.177Z,27.52
2023-01-13T02:26:23.168Z,24.92
2023-01-13T02:29:46.729Z,29.12
2023-01-13T02:32:17.134Z,32.75
2023-01-13T02:35:17.887Z,30.45
2023-01-13T02:37:45.949Z,24.08
2023-01-13T02:40:26.919Z,24.92
2023-01-13T02:43:21.937Z,24.15
2023-01-13T02:46:03.251Z,23.02
2023-01-13T02:48:32.110Z,22.05
2023-01-13T02:51:03.643Z,23.00
2023-01-13T02:53:38.212Z,23.05
2023-01-13T02:56:06.621Z,23.17
2023-01-13T02:58:35.167Z,20.83
2023-01-13T03:01:02.400Z,20.42
2023-01-13T03:03:31.115Z,21.58
2023-01-13T03:06:05.602Z,20.75
2023-01-13T03:08:39.762Z,20.92
2023-01-13T03:13:44.537Z,21.70
2023-01-13T03:16:15.027Z,21.33
2023-01-13T03:19:03.723Z,20.15
2023-01-13T03:21:38.904Z,20.37
2023-01-13T03:24:18.423Z,20.42
2023-01-13T03:26:49.824Z,19.10
2023-01-13T03:29:19.929Z,18.98
2023-01-13T03:31:56.735Z,18.85
2023-01-13T03:34:27.620Z,18.92
2023-01-13T03:36:57.709Z,19.23
2023-01-13T03:39:32.399Z,20.15
2023-01-13T03:42:09.078Z,22.13
2023-01-13T03:44:42.132Z,21.87
2023-01-13T03:47:12.553Z,19.75
2023-01-13T03:49:51.980Z,18.65
2023-01-13T03:52:24.402Z,20.77
2023-01-13T03:54:54.906Z,21.17
2023-01-13T03:57:26.910Z,20.05
2023-01-13T03:59:56.710Z,20.17
2023-01-13T04:02:39.361Z,21.95
2023-01-13T04:05:09.337Z,21.77
2023-01-13T04:07:39.374Z,20.60
2023-01-13T04:10:09.530Z,20.75
2023-01-13T04:13:01.030Z,23.10
2023-01-13T04:15:39.920Z,23.17
2023-01-13T04:18:27.792Z,22.50
2023-01-13T04:20:57.660Z,23.87
2023-01-13T04:23:24.989Z,23.83
2023-01-13T04:25:52.367Z,22.40
2023-01-13T04:28:20.525Z,22.55
2023-01-13T04:30:48.017Z,23.55
2023-01-13T04:33:16.245Z,22.67
2023-01-13T04:35:44.405Z,22.05
2023-01-13T04:38:14.078Z,22.83
2023-01-13T04:40:41.974Z,21.48
2023-01-13T04:43:09.391Z,21.40
2023-01-13T04:45:36.479Z,21.42
2023-01-13T04:48:03.674Z,21.23
2023-01-13T04:50:31.401Z,21.23
2023-01-13T04:52:58.568Z,21.50
2023-01-13T04:55:25.678Z,22.13
2023-01-13T04:57:53.340Z,21.87
2023-01-13T05:00:22.585Z,22.52
2023-01-13T05:02:50.955Z,24.23
2023-01-13T05:05:18.593Z,26.73
2023-01-13T05:07:45.737Z,23.77
2023-01-13T05:10:13.182Z,22.23
2023-01-13T05:12:59.325Z,23.08
2023-01-13T05:15:45.129Z,23.45
2023-01-13T05:18:13.041Z,30.05
2023-01-13T05:20:40.188Z,21.30
2023-01-13T05:23:25.913Z,23.17
2023-01-13T05:25:53.398Z,20.27
2023-01-13T05:28:20.623Z,19.85
2023-01-13T05:30:49.504Z,20.73
2023-01-13T05:33:18.840Z,22.55
2023-01-13T05:35:46.771Z,21.75
2023-01-13T05:38:14.586Z,21.23
2023-01-13T05:41:11.434Z,22.17
2023-01-13T05:43:38.519Z,21.10
2023-01-13T05:46:08.816Z,29.25
2023-01-13T05:48:38.727Z,30.40
2023-01-13T05:51:08.260Z,22.23
2023-01-13T05:53:35.841Z,23.20
2023-01-13T05:56:06.584Z,26.58
2023-01-13T05:58:34.490Z,32.92
2023-01-13T06:01:11.235Z,26.85
2023-01-13T06:03:38.645Z,23.58
2023-01-13T06:06:08.587Z,22.15
2023-01-13T06:08:36.520Z,21.48
2023-01-13T06:11:05.582Z,24.30
2023-01-13T06:13:32.684Z,22.50
2023-01-13T06:16:00.165Z,26.35
2023-01-13T06:18:27.775Z,26.60
2023-01-13T06:20:55.425Z,26.08
2023-01-13T06:23:23.082Z,25.30
2023-01-13T06:26:08.600Z,23.75
2023-01-13T06:28:36.203Z,22.98
2023-01-13T06:31:06.411Z,25.62
2023-01-13T06:33:36.921Z,24.37
2023-01-13T06:36:10.455Z,23.05
2023-01-13T06:38:41.054Z,23.25
2023-01-13T06:41:09.141Z,24.12
2023-01-13T06:43:36.501Z,22.65
2023-01-13T06:46:04.016Z,23.12
2023-01-13T06:48:34.980Z,23.58
2023-01-13T06:51:03.907Z,22.83
2023-01-13T06:53:31.651Z,22.30
2023-01-13T06:55:58.873Z,19.20
2023-01-13T06:58:26.108Z,18.33
2023-01-13T07:00:53.965Z,17.67
2023-01-13T07:03:21.487Z,19.00
2023-01-13T07:05:53.659Z,18.75
2023-01-13T07:08:22.477Z,21.77
2023-01-13T07:10:49.768Z,22.60
2023-01-13T07:13:35.438Z,22.52
2023-01-13T07:16:05.118Z,20.50
2023-01-13T07:18:33.356Z,22.05
2023-01-13T07:21:02.817Z,24.75
2023-01-13T07:23:31.966Z,17.08
2023-01-13T07:25:59.737Z,15.57
2023-01-13T07:28:28.377Z,14.00
2023-01-13T07:30:56.390Z,14.40
2023-01-13T07:33:23.866Z,15.02
2023-01-13T07:35:58.915Z,15.90
2023-01-13T07:38:27.363Z,15.18
2023-01-13T07:40:54.577Z,16.10
2023-01-13T07:43:33.709Z,14.82
2023-01-13T07:46:04.557Z,15.57
2023-01-13T07:48:33.770Z,15.05
2023-01-13T07:51:07.815Z,15.57
2023-01-13T07:53:35.588Z,13.98
2023-01-13T07:56:04.859Z,15.70
2023-01-13T07:58:33.913Z,15.52
2023-01-13T08:01:07.703Z,14.80
2023-01-13T08:03:35.170Z,13.50
2023-01-13T08:06:02.361Z,12.07
2023-01-13T08:08:29.422Z,12.57
2023-01-13T08:11:00.937Z,11.70
2023-01-13T08:13:28.068Z,12.90
2023-01-13T08:16:03.849Z,14.05
2023-01-13T08:18:32.378Z,12.43
2023-01-13T08:21:08.064Z,11.43
2023-01-13T08:23:35.945Z,12.10
2023-01-13T08:26:05.797Z,13.40
2023-01-13T08:28:32.962Z,11.95
2023-01-13T08:31:04.862Z,10.80
2023-01-13T08:33:32.481Z,10.23
2023-01-13T08:36:03.725Z,10.32
2023-01-13T08:38:31.461Z,10.48
2023-01-13T08:40:58.735Z,10.40
2023-01-13T08:43:26.104Z,10.40
2023-01-13T08:46:01.344Z,9.90
2023-01-13T08:48:31.448Z,8.77
2023-01-13T08:51:07.581Z,10.55
2023-01-13T08:53:35.112Z,9.48
2023-01-13T08:56:04.176Z,8.90
2023-01-13T08:58:31.344Z,9.70
2023-01-13T09:01:04.977Z,9.93
2023-01-13T09:03:32.713Z,9.70
2023-01-13T09:05:59.866Z,10.13
2023-01-13T09:08:27.039Z,10.52
2023-01-13T09:10:54.574Z,11.68
2023-01-13T09:13:24.535Z,11.48
2023-01-13T09:15:52.632Z,9.57
2023-01-13T09:18:20.029Z,8.75
2023-01-13T09:20:47.232Z,10.52
2023-01-13T09:23:14.359Z,10.00
2023-01-13T09:25:41.830Z,12.52
2023-01-13T09:28:09.021Z,9.70
2023-01-13T09:30:37.741Z,10.98
2023-01-13T09:33:23.713Z,10.27
2023-01-13T09:35:50.904Z,10.75
2023-01-13T09:38:18.406Z,10.10
2023-01-13T09:40:47.915Z,10.93
2023-01-13T09:43:38.460Z,11.85
2023-01-13T09:46:39.589Z,10.93
2023-01-13T09:49:11.087Z,9.73
2023-01-13T09:51:42.259Z,10.45
2023-01-13T09:54:38.102Z,11.30
2023-01-13T09:57:10.437Z,11.38
2023-01-13T09:59:38.222Z,11.55
2023-01-13T10:02:37.324Z,11.12
2023-01-13T10:05:10.562Z,11.35
2023-01-13T10:07:43.856Z,12.37
2023-01-13T10:10:17.136Z,11.45
2023-01-13T10:13:04.764Z,11.52
2023-01-13T10:15:32.220Z,11.65
2023-01-13T10:18:12.568Z,11.15
2023-01-13T10:20:56.024Z,12.37
2023-01-13T10:23:25.926Z,10.50
2023-01-13T10:26:21.036Z,10.98
2023-01-13T10:28:53.205Z,10.63
2023-01-13T10:31:22.319Z,10.63
2023-01-13T10:33:58.550Z,11.27
2023-01-13T10:36:26.009Z,10.43
2023-01-13T10:38:53.201Z,11.98
2023-01-13T10:41:24.127Z,10.93
2023-01-13T10:43:51.476Z,11.05
2023-01-13T10:46:20.475Z,10.18
2023-01-13T10:49:27.614Z,10.43
2023-01-13T10:51:55.011Z,10.90
2023-01-13T10:54:24.456Z,10.07
2023-01-13T10:57:24.419Z,9.18
2023-01-13T10:59:53.095Z,11.50
2023-01-13T11:02:27.202Z,12.13
2023-01-13T11:05:02.696Z,12.32
2023-01-13T11:07:40.538Z,12.23
2023-01-13T11:10:17.235Z,13.13
2023-01-13T11:12:53.853Z,14.35
2023-01-13T11:15:24.728Z,11.95
2023-01-13T11:18:00.544Z,19.30
2023-01-13T11:20:37.010Z,13.50
2023-01-13T11:23:22.796Z,10.98
2023-01-13T11:25:55.302Z,11.88
2023-01-13T11:28:38.248Z,11.30
2023-01-13T11:31:19.481Z,11.68
2023-01-13T11:34:17.758Z,13.50
2023-01-13T11:36:49.410Z,11.32
2023-01-13T11:39:26.524Z,14.52
2023-01-13T11:42:16.954Z,11.98
2023-01-13T11:45:05.574Z,14.65
2023-01-13T11:47:35.864Z,14.63
2023-01-13T11:50:03.250Z,12.82
2023-01-13T11:52:49.218Z,12.15
2023-01-13T11:55:54.671Z,10.68
2023-01-13T11:58:51.051Z,13.25
2023-01-13T12:01:32.021Z,13.05
2023-01-13T12:04:05.821Z,22.20
2023-01-13T12:06:34.884Z,16.58
2023-01-13T12:09:22.281Z,14.02
2023-01-13T12:12:22.201Z,13.20
2023-01-13T12:15:11.502Z,14.00
2023-01-13T12:17:48.927Z,14.90
2023-01-13T12:20:38.117Z,15.27
2023-01-13T12:23:13.726Z,15.05
2023-01-13T12:25:45.572Z,13.55
2023-01-13T12:28:44.419Z,13.57
2023-01-13T12:31:13.696Z,13.62
2023-01-13T12:33:45.414Z,12.32
2023-01-13T12:36:22.500Z,14.38
2023-01-13T12:38:53.201Z,14.25
2023-01-13T12:41:31.097Z,11.95
2023-01-13T12:44:17.140Z,13.80
2023-01-13T12:46:45.968Z,14.07
2023-01-13T12:49:24.598Z,12.07
2023-01-13T12:51:51.900Z,13.65
2023-01-13T12:54:33.964Z,14.57
2023-01-13T12:57:01.674Z,13.68
2023-01-13T12:59:28.783Z,13.05
2023-01-13T13:02:11.243Z,14.23
2023-01-13T13:04:48.465Z,12.18
2023-01-13T13:07:19.169Z,12.15
2023-01-13T13:09:52.396Z,13.55
2023-01-13T13:13:01.392Z,12.48
2023-01-13T13:15:34.132Z,14.27
2023-01-13T13:18:20.836Z,13.52
2023-01-13T13:20:54.573Z,12.32
2023-01-13T13:23:47.953Z,13.40
2023-01-13T13:26:26.335Z,12.50
2023-01-13T13:28:56.485Z,12.63
2023-01-13T13:31:41.026Z,14.63
2023-01-13T13:34:10.699Z,13.60
2023-01-13T13:37:00.623Z,12.50
2023-01-13T13:39:49.117Z,12.75
2023-01-13T13:42:39.417Z,13.07
2023-01-13T13:45:39.977Z,12.02
2023-01-13T13:48:27.211Z,13.07
2023-01-13T13:50:59.915Z,11.38
2023-01-13T13:53:30.399Z,11.90
2023-01-13T13:55:59.926Z,11.43
2023-01-13T13:58:35.454Z,11.95
2023-01-13T14:01:04.112Z,11.93
2023-01-13T14:03:34.596Z,10.43
2023-01-13T14:06:04.208Z,12.57
2023-01-13T14:08:36.986Z,10.98
2023-01-13T14:11:28.429Z,10.32
2023-01-13T14:14:07.233Z,10.65
2023-01-13T14:16:36.259Z,14.18
2023-01-13T14:19:03.919Z,10.93
2023-01-13T14:21:31.261Z,11.75
2023-01-13T14:24:01.303Z,11.88
2023-01-13T14:26:31.284Z,10.60
2023-01-13T14:29:00.633Z,10.30
2023-01-13T14:31:28.243Z,10.98
2023-01-13T14:33:57.616Z,11.27
2023-01-13T14:36:25.387Z,10.60
2023-01-13T14:39:04.624Z,11.93
2023-01-13T14:41:37.455Z,11.73
2023-01-13T14:44:32.484Z,11.27
2023-01-13T14:47:05.208Z,19.15
2023-01-13T14:49:36.831Z,12.98
2023-01-13T14:52:16.924Z,12.23
2023-01-13T14:54:45.218Z,11.90
2023-01-13T14:57:14.267Z,13.65
2023-01-13T14:59:57.347Z,12.20
2023-01-13T15:02:30.651Z,12.30
2023-01-13T15:05:24.304Z,13.73
2023-01-13T15:07:54.615Z,11.65
2023-01-13T15:10:25.391Z,12.32
2023-01-13T15:12:54.655Z,12.73
2023-01-13T15:15:33.414Z,12.77
2023-01-13T15:18:02.129Z,12.10
2023-01-13T15:20:29.422Z,10.65
2023-01-13T15:22:58.679Z,13.23
2023-01-13T15:25:31.936Z,12.93
2023-01-13T15:27:59.074Z,12.93
2023-01-13T15:30:27.829Z,12.93
2023-01-13T15:32:57.141Z,15.02
2023-01-13T15:35:26.042Z,14.52
2023-01-13T15:37:55.837Z,13.35
2023-01-13T15:40:30.684Z,14.32
2023-01-13T15:43:17.234Z,16.00
2023-01-13T15:46:04.554Z,14.45
2023-01-13T15:48:32.954Z,14.30
2023-01-13T15:51:03.711Z,15.80
2023-01-13T15:53:32.660Z,16.12
2023-01-13T15:56:00.389Z,13.95
2023-01-13T15:58:30.178Z,19.05
2023-01-13T16:00:57.785Z,16.67
2023-01-13T16:03:25.193Z,16.25
2023-01-13T16:05:52.296Z,15.98
2023-01-13T16:08:21.917Z,17.12
2023-01-13T16:10:49.886Z,19.83
2023-01-13T16:13:17.822Z,20.37
2023-01-13T16:15:47.968Z,17.48
2023-01-13T16:18:21.314Z,16.33
2023-01-13T16:20:52.812Z,16.52
2023-01-13T16:23:20.586Z,15.50
2023-01-13T16:25:47.858Z,17.73
2023-01-13T16:28:24.061Z,17.10
2023-01-13T16:30:52.108Z,18.15
2023-01-13T16:33:19.301Z,23.27
2023-01-13T16:36:10.325Z,22.33
2023-01-13T16:38:33.845Z,31.23
2023-01-13T16:41:01.085Z,38.25
2023-01-13T16:43:28.265Z,26.48
2023-01-13T16:45:55.770Z,22.73
2023-01-13T16:48:22.998Z,19.98
2023-01-13T16:50:50.183Z,22.55
2023-01-13T16:53:17.591Z,21.37
2023-01-13T16:55:44.952Z,23.62
2023-01-13T16:58:17.838Z,22.62
2023-01-13T17:00:46.968Z,22.77
2023-01-13T17:03:17.584Z,21.75
2023-01-13T17:05:49.454Z,22.92
2023-01-13T17:08:19.921Z,24.30
2023-01-13T17:10:47.577Z,24.35
2023-01-13T17:13:17.079Z,26.98
2023-01-13T17:15:45.646Z,21.65
2023-01-13T17:18:13.615Z,23.77
2023-01-13T17:20:41.384Z,23.38
2023-01-13T17:23:08.566Z,21.83
2023-01-13T17:25:36.031Z,30.98
2023-01-13T17:28:03.444Z,23.92
2023-01-13T17:30:30.519Z,21.35
2023-01-13T17:32:57.925Z,20.17
2023-01-13T17:35:25.440Z,19.35
2023-01-13T17:37:53.241Z,21.55
2023-01-13T17:40:20.930Z,20.20
2023-01-13T17:42:48.079Z,19.90
2023-01-13T17:45:16.307Z,20.77
2023-01-13T17:47:43.727Z,22.55
2023-01-13T17:50:10.917Z,22.80
2023-01-13T17:52:38.121Z,22.50
2023-01-13T17:55:05.891Z,22.85
2023-01-13T17:57:35.082Z,22.35
2023-01-13T18:00:03.286Z,19.92
2023-01-13T18:02:39.296Z,21.52
2023-01-13T18:05:06.925Z,21.65
2023-01-13T18:07:34.016Z,24.27
2023-01-13T18:10:01.161Z,26.27
2023-01-13T18:12:28.615Z,25.58
2023-01-13T18:14:55.722Z,26.55
2023-01-13T18:17:22.920Z,26.67
2023-01-13T18:20:08.991Z,23.08
2023-01-13T18:22:54.600Z,24.55
2023-01-13T18:25:40.459Z,23.48
2023-01-13T18:28:07.583Z,24.12
2023-01-13T18:30:35.058Z,24.23
2023-01-13T18:33:02.296Z,24.70
2023-01-13T18:35:30.122Z,23.87
2023-01-13T18:37:57.461Z,23.25
2023-01-13T18:40:24.611Z,23.58
2023-01-13T18:42:51.817Z,24.60
2023-01-13T18:45:29.904Z,25.77
2023-01-13T18:47:59.507Z,25.60
2023-01-13T18:50:28.151Z,29.73
2023-01-13T18:52:55.546Z,27.85
2023-01-13T18:55:23.059Z,32.85
2023-01-13T18:57:51.223Z,34.05
2023-01-13T19:00:20.384Z,32.97
2023-01-13T19:02:48.076Z,43.92
2023-01-13T19:05:15.483Z,38.97
2023-01-13T19:07:46.340Z,40.60
2023-01-13T19:10:13.462Z,37.47
2023-01-13T19:12:42.204Z,38.45
2023-01-13T19:15:09.964Z,35.88
2023-01-13T19:17:37.084Z,35.80
2023-01-13T19:20:05.204Z,39.78
2023-01-13T19:22:34.028Z,33.30
2023-01-13T19:25:01.889Z,34.42
2023-01-13T19:27:29.905Z,35.60
2023-01-13T19:30:04.008Z,35.08
2023-01-13T19:32:33.296Z,32.22
2023-01-13T19:35:01.022Z,28.27
2023-01-13T19:37:33.728Z,34.67
2023-01-13T19:40:01.300Z,37.70
2023-01-13T19:42:47.699Z,37.85
2023-01-13T19:45:28.258Z,30.35
2023-01-13T19:47:57.045Z,30.98
2023-01-13T19:50:25.076Z,33.25
2023-01-13T19:52:52.305Z,34.40
2023-01-13T19:55:19.847Z,31.60
2023-01-13T19:57:48.410Z,24.48
2023-01-13T20:00:18.334Z,30.55
2023-01-13T20:02:49.540Z,27.35
2023-01-13T20:05:21.044Z,26.83
2023-01-13T20:07:49.931Z,32.72
2023-01-13T20:10:18.897Z,30.48
2023-01-13T20:12:46.071Z,28.73
2023-01-13T20:15:13.665Z,26.90
2023-01-13T20:17:41.581Z,29.00
2023-01-13T20:20:10.620Z,29.08
2023-01-13T20:22:39.265Z,27.30
2023-01-13T20:25:07.070Z,25.73
2023-01-13T20:27:34.458Z,28.50
2023-01-13T20:30:01.895Z,32.42
2023-01-13T20:32:29.006Z,32.13
2023-01-13T20:34:56.136Z,29.63
2023-01-13T20:37:23.499Z,27.42
2023-01-13T20:39:50.720Z,30.10
2023-01-13T20:42:29.842Z,25.17
2023-01-13T20:45:01.236Z,26.17
2023-01-13T20:47:29.537Z,24.17
2023-01-13T20:49:56.857Z,22.70
2023-01-13T20:52:24.735Z,23.05
2023-01-13T20:54:51.954Z,22.23
2023-01-13T20:57:19.114Z,20.88
2023-01-13T20:59:46.641Z,22.27
2023-01-13T21:02:15.682Z,20.85
2023-01-13T21:04:43.433Z,19.35
2023-01-13T21:07:10.998Z,20.62
2023-01-13T21:09:38.172Z,22.95
2023-01-13T21:12:24.834Z,27.35
2023-01-13T21:15:11.149Z,28.17
2023-01-13T21:17:56.724Z,26.90
2023-01-13T21:20:24.082Z,28.05
2023-01-13T21:22:51.277Z,26.75
2023-01-13T21:25:18.999Z,27.17
2023-01-13T21:27:46.592Z,24.63
2023-01-13T21:30:15.445Z,23.92
2023-01-13T21:32:44.124Z,22.42
2023-01-13T21:35:13.283Z,23.05
2023-01-13T21:37:41.927Z,22.50
2023-01-13T21:40:11.015Z,21.80
2023-01-13T21:42:56.847Z,20.67
2023-01-13T21:45:59.430Z,19.73
2023-01-13T21:48:26.837Z,20.75
2023-01-13T21:50:53.904Z,20.52
2023-01-13T21:53:20.972Z,21.10
2023-01-13T21:55:51.264Z,21.30
2023-01-13T21:58:18.307Z,23.25
2023-01-13T22:00:45.494Z,21.87
2023-01-13T22:03:14.662Z,22.55
2023-01-13T22:05:41.940Z,23.02
2023-01-13T22:08:12.455Z,24.05
2023-01-13T22:10:57.158Z,24.58
2023-01-13T22:13:43.845Z,24.80
2023-01-13T22:16:14.469Z,23.10
2023-01-13T22:18:41.617Z,23.50
2023-01-13T22:21:08.698Z,24.37
2023-01-13T22:23:36.077Z,23.85
2023-01-13T22:26:04.361Z,23.80
2023-01-13T22:28:40.104Z,25.58
2023-01-13T22:31:15.102Z,21.70
2023-01-13T22:33:42.767Z,25.37
2023-01-13T22:36:10.333Z,23.45
2023-01-13T22:38:37.442Z,25.05
2023-01-13T22:41:06.747Z,23.17
2023-01-13T22:43:35.327Z,22.55
2023-01-13T22:46:06.276Z,22.87
2023-01-13T22:48:33.919Z,22.87
2023-01-13T22:51:08.913Z,24.63
2023-01-13T22:53:37.179Z,23.70
2023-01-13T22:56:04.931Z,22.35
2023-01-13T22:58:32.343Z,23.52
2023-01-13T23:01:30.456Z,22.65
2023-01-13T23:03:57.904Z,24.30
2023-01-13T23:06:27.048Z,22.42
2023-01-13T23:08:54.740Z,22.52
2023-01-13T23:11:24.669Z,23.45
2023-01-13T23:13:57.898Z,21.67
2023-01-13T23:16:25.159Z,22.50
2023-01-13T23:18:52.580Z,24.17
2023-01-13T23:21:25.973Z,24.27
2023-01-13T23:23:53.785Z,24.33
2023-01-13T23:26:21.419Z,23.60
2023-01-13T23:28:49.033Z,24.25
2023-01-13T23:31:19.482Z,24.20
2023-01-13T23:33:47.066Z,26.33
2023-01-13T23:36:23.364Z,25.40
2023-01-13T23:38:53.738Z,24.52
2023-01-13T23:41:23.639Z,25.33
2023-01-13T23:43:56.084Z,22.60
2023-01-13T23:46:23.467Z,20.70
2023-01-13T23:48:51.506Z,22.23
2023-01-13T23:51:21.232Z,22.58
2023-01-13T23:53:50.076Z,22.27
2023-01-13T23:56:22.889Z,21.05
2023-01-13T23:58:50.417Z,22.15
